Time;durP1;ratioP1;P1;durP2;ratioP2;P2;SDS_P1;SDS_P2;PMS_P1;PMS_P2;Temp;Humidity;BMP_temperature;BMP_pressure;BME280_temperature;BME280_humidity;BME280_pressure;Samples;Min_cycle;Max_cycle;Signal;HPM_P1;HPM_P2
2022/11/14 00:01:51;;;;;;;16.70;11.03;;;5.30;99.90;;;;;;5066385;28;20470;-80
2022/11/14 00:04:17;;;;;;;16.57;12.37;;;5.30;99.90;;;;;;5065451;28;20545;-80
2022/11/14 00:06:44;;;;;;;15.70;10.70;;;5.30;99.90;;;;;;5064317;28;20456;-80
2022/11/14 00:09:11;;;;;;;12.90;9.20;;;5.30;99.90;;;;;;5062069;28;20452;-79
2022/11/14 00:11:40;;;;;;;17.70;10.27;;;5.30;99.90;;;;;;5073322;28;20460;-80
2022/11/14 00:14:07;;;;;;;15.83;11.40;;;5.20;99.90;;;;;;5064946;28;20467;-82
2022/11/14 00:16:34;;;;;;;13.77;9.20;;;5.30;99.90;;;;;;5067653;28;20939;-80
2022/11/14 00:19:01;;;;;;;12.50;9.20;;;5.30;99.90;;;;;;5072277;28;21201;-80
2022/11/14 00:21:28;;;;;;;13.23;8.97;;;5.20;99.90;;;;;;5067507;28;20485;-80
2022/11/14 00:23:55;;;;;;;10.70;8.23;;;5.10;99.90;;;;;;5070438;28;21158;-80
2022/11/14 00:26:21;;;;;;;14.77;10.50;;;4.90;99.90;;;;;;5073138;28;20455;-80
2022/11/14 00:28:50;;;;;;;11.67;8.73;;;4.90;99.90;;;;;;5084733;28;20558;-81
2022/11/14 00:31:17;;;;;;;13.37;9.63;;;4.90;99.90;;;;;;5081521;28;20472;-81
2022/11/14 00:33:44;;;;;;;15.83;9.80;;;4.80;99.90;;;;;;5084002;28;20466;-80
2022/11/14 00:36:11;;;;;;;11.17;9.10;;;4.80;99.90;;;;;;5073816;28;20462;-81
2022/11/14 00:38:38;;;;;;;10.93;8.77;;;4.70;99.90;;;;;;5076085;28;20465;-80
2022/11/14 00:41:05;;;;;;;17.00;10.77;;;4.60;99.90;;;;;;5070279;28;20464;-80
2022/11/14 00:43:32;;;;;;;12.27;10.50;;;4.70;99.90;;;;;;5080310;28;20554;-80
2022/11/14 00:46:01;;;;;;;17.40;9.93;;;4.80;99.90;;;;;;5086425;28;20500;-80
2022/11/14 00:48:28;;;;;;;15.47;11.80;;;4.90;99.90;;;;;;5083181;28;20540;-80
2022/11/14 00:50:55;;;;;;;18.23;13.63;;;5.10;99.90;;;;;;5077684;28;21108;-79
2022/11/14 00:53:22;;;;;;;19.27;12.70;;;5.10;99.90;;;;;;5071756;28;20519;-80
2022/11/14 00:55:49;;;;;;;23.23;11.60;;;5.10;99.90;;;;;;5078180;28;20497;-81
2022/11/14 00:58:16;;;;;;;13.33;11.10;;;5.00;99.90;;;;;;5075185;28;20512;-80
2022/11/14 01:00:43;;;;;;;17.23;10.60;;;5.10;99.90;;;;;;5069324;28;20955;-81
2022/11/14 01:03:12;;;;;;;18.53;14.17;;;5.20;99.90;;;;;;5074131;28;20480;-80
2022/11/14 01:05:43;;;;;;;12.50;9.37;;;5.30;99.90;;;;;;5074854;28;20462;-81
2022/11/14 01:08:11;;;;;;;19.23;12.00;;;5.40;99.90;;;;;;5075260;28;20469;-81
2022/11/14 01:10:40;;;;;;;17.07;11.60;;;5.50;99.90;;;;;;5071108;28;20460;-80
2022/11/14 01:13:08;;;;;;;19.27;12.20;;;5.50;99.90;;;;;;5071288;28;20489;-81
2022/11/14 01:15:39;;;;;;;22.37;11.07;;;5.50;99.90;;;;;;5073067;28;20833;-81
2022/11/14 01:18:06;;;;;;;14.47;11.23;;;5.50;99.90;;;;;;5073018;28;20940;-81
2022/11/14 01:20:34;;;;;;;18.77;11.10;;;5.40;99.90;;;;;;5071675;28;21086;-80
2022/11/14 01:23:01;;;;;;;15.30;10.90;;;5.40;99.90;;;;;;5076162;28;20463;-81
2022/11/14 01:25:28;;;;;;;16.87;10.67;;;5.40;99.90;;;;;;5078474;28;20858;-81
2022/11/14 01:27:55;;;;;;;17.33;11.60;;;5.30;99.90;;;;;;5073828;28;20504;-81
2022/11/14 01:30:22;;;;;;;18.20;11.43;;;5.30;99.90;;;;;;5081830;28;20981;-81
2022/11/14 01:32:49;;;;;;;13.13;9.47;;;5.20;99.90;;;;;;5092024;28;20468;-80
2022/11/14 01:35:16;;;;;;;15.90;10.50;;;5.20;99.90;;;;;;5074359;28;20543;-81
2022/11/14 01:37:45;;;;;;;17.10;13.37;;;5.10;99.90;;;;;;5079452;28;20483;-81
2022/11/14 01:40:12;;;;;;;18.63;12.20;;;5.10;99.90;;;;;;5076246;28;20471;-81
2022/11/14 01:42:39;;;;;;;13.80;10.33;;;5.00;99.90;;;;;;5073875;28;20455;-80
2022/11/14 01:45:39;;;;;;;18.00;11.87;;;5.00;99.90;;;;;;5078502;28;20490;-80
2022/11/14 01:48:17;;;;;;;18.47;13.07;;;5.00;99.90;;;;;;5077682;28;20497;-80
2022/11/14 01:50:44;;;;;;;18.40;13.50;;;5.00;99.90;;;;;;5080292;28;20840;-80
2022/11/14 01:53:14;;;;;;;16.67;13.80;;;5.00;99.90;;;;;;5080776;28;20826;-80
2022/11/14 01:55:41;;;;;;;20.37;13.63;;;5.00;99.90;;;;;;5083069;28;20765;-80
2022/11/14 01:58:08;;;;;;;19.43;13.47;;;5.00;99.90;;;;;;5067959;28;20922;-81
2022/11/14 02:00:35;;;;;;;18.10;13.23;;;4.90;99.90;;;;;;5070053;28;20446;-81
2022/11/14 02:03:04;;;;;;;20.20;14.10;;;4.90;99.90;;;;;;5071879;28;20549;-80
2022/11/14 02:05:31;;;;;;;19.53;14.37;;;4.90;99.90;;;;;;5068783;28;20517;-81
2022/11/14 02:07:59;;;;;;;21.90;13.73;;;4.90;99.90;;;;;;5079204;28;20500;-81
2022/11/14 02:10:27;;;;;;;21.93;14.20;;;4.90;99.90;;;;;;5073138;28;20458;-81
2022/11/14 02:12:54;;;;;;;16.97;11.50;;;4.80;99.90;;;;;;5072962;28;20472;-81
2022/11/14 02:15:22;;;;;;;24.30;13.17;;;4.80;99.90;;;;;;5072045;28;20522;-80
2022/11/14 02:17:49;;;;;;;24.00;15.03;;;4.80;99.90;;;;;;5071231;28;20475;-81
2022/11/14 02:20:20;;;;;;;21.00;13.47;;;4.80;99.90;;;;;;5070169;28;20466;-81
2022/11/14 02:22:47;;;;;;;21.10;13.40;;;4.80;99.90;;;;;;5070282;28;20468;-80
2022/11/14 02:25:17;;;;;;;20.07;13.43;;;4.80;99.90;;;;;;5072731;28;20490;-81
2022/11/14 02:27:44;;;;;;;23.33;13.83;;;4.80;99.90;;;;;;5077117;28;20862;-80
2022/11/14 02:30:15;;;;;;;31.50;16.00;;;4.80;99.90;;;;;;5081906;28;21206;-81
2022/11/14 02:32:42;;;;;;;18.53;12.70;;;4.80;99.90;;;;;;5084279;28;20446;-80
2022/11/14 02:35:10;;;;;;;18.10;14.00;;;4.70;99.90;;;;;;5075814;28;20462;-81
2022/11/14 02:37:38;;;;;;;23.63;15.20;;;4.70;99.90;;;;;;5078239;28;20463;-80
2022/11/14 02:40:07;;;;;;;20.23;13.70;;;4.70;99.90;;;;;;5078335;28;20460;-81
2022/11/14 02:42:34;;;;;;;15.67;9.70;;;4.80;99.90;;;;;;5075145;28;20489;-80
2022/11/14 02:45:01;;;;;;;24.90;16.17;;;4.80;99.90;;;;;;5082938;28;20498;-80
2022/11/14 02:47:28;;;;;;;22.00;14.37;;;4.80;99.90;;;;;;5070262;28;20982;-81
2022/11/14 02:49:55;;;;;;;21.37;15.60;;;4.80;99.90;;;;;;5070103;28;20471;-81
2022/11/14 02:52:22;;;;;;;19.10;14.23;;;4.90;99.90;;;;;;5068636;28;20472;-81
2022/11/14 02:54:50;;;;;;;21.63;15.30;;;4.90;99.90;;;;;;5069557;28;20439;-81
2022/11/14 02:57:17;;;;;;;23.67;13.83;;;4.90;99.90;;;;;;5064409;28;20463;-81
2022/11/14 02:59:44;;;;;;;20.67;15.00;;;4.90;99.90;;;;;;5068721;28;20464;-80
2022/11/14 03:02:13;;;;;;;21.00;15.03;;;4.90;99.90;;;;;;5076392;28;20463;-80
2022/11/14 03:04:39;;;;;;;19.43;14.13;;;4.90;99.90;;;;;;5065679;28;20487;-81
2022/11/14 03:07:07;;;;;;;20.53;13.10;;;4.90;99.90;;;;;;5073579;28;20531;-80
2022/11/14 03:09:34;;;;;;;22.57;13.80;;;5.00;99.90;;;;;;5068372;28;20467;-81
2022/11/14 03:12:02;;;;;;;22.60;15.07;;;4.90;99.90;;;;;;5067789;28;20467;-81
2022/11/14 03:14:31;;;;;;;20.87;15.00;;;5.00;99.90;;;;;;5070496;28;20801;-80
2022/11/14 03:16:58;;;;;;;22.50;14.63;;;5.00;99.90;;;;;;5066892;28;20555;-81
2022/11/14 03:19:25;;;;;;;17.60;13.63;;;5.10;99.90;;;;;;5067439;28;20507;-81
2022/11/14 03:21:52;;;;;;;18.33;13.70;;;5.00;99.90;;;;;;5078845;28;20830;-81
2022/11/14 03:24:19;;;;;;;24.47;16.20;;;5.00;99.90;;;;;;5074177;28;20506;-80
2022/11/14 03:26:46;;;;;;;22.90;15.40;;;5.00;99.90;;;;;;5075111;28;20492;-81
2022/11/14 03:29:14;;;;;;;19.27;15.10;;;5.00;99.90;;;;;;5076167;28;20942;-80
2022/11/14 03:31:41;;;;;;;18.17;13.23;;;4.90;99.90;;;;;;5070849;28;20456;-80
2022/11/14 03:34:09;;;;;;;21.93;15.03;;;4.90;99.90;;;;;;5083520;28;20468;-80
2022/11/14 03:36:37;;;;;;;23.17;14.40;;;4.90;99.90;;;;;;5072727;28;20895;-80
2022/11/14 03:39:05;;;;;;;17.90;12.00;;;4.90;99.90;;;;;;5078079;28;20451;-80
2022/11/14 03:41:32;;;;;;;26.07;15.00;;;4.90;99.90;;;;;;5069045;28;20500;-80
2022/11/14 03:43:59;;;;;;;21.37;15.23;;;4.90;99.90;;;;;;5081944;28;21010;-81
2022/11/14 03:46:27;;;;;;;22.87;15.40;;;4.90;99.90;;;;;;5074056;28;21191;-81
2022/11/14 03:48:54;;;;;;;21.27;14.27;;;4.90;99.90;;;;;;5065926;28;20464;-81
2022/11/14 03:51:21;;;;;;;21.03;15.27;;;4.90;99.90;;;;;;5070272;28;20496;-80
2022/11/14 03:53:48;;;;;;;20.67;14.00;;;4.90;99.90;;;;;;5072613;28;20500;-80
2022/11/14 03:56:15;;;;;;;23.83;14.20;;;4.90;99.90;;;;;;5062453;28;20522;-80
2022/11/14 03:58:43;;;;;;;23.60;16.60;;;4.90;99.90;;;;;;5068267;28;20462;-81
2022/11/14 04:01:10;;;;;;;29.43;15.20;;;4.90;99.90;;;;;;5079022;28;20466;-82
2022/11/14 04:03:38;;;;;;;22.53;15.07;;;4.90;99.90;;;;;;5076820;28;20484;-81
2022/11/14 04:06:06;;;;;;;17.70;14.07;;;4.90;99.90;;;;;;5077972;28;20542;-80
2022/11/14 04:08:33;;;;;;;20.60;14.43;;;4.80;99.90;;;;;;5079506;28;20467;-80
2022/11/14 04:10:59;;;;;;;21.93;14.77;;;4.70;99.90;;;;;;5078232;28;20818;-81
2022/11/14 04:13:26;;;;;;;22.87;16.37;;;4.80;99.90;;;;;;5067174;28;20549;-80
2022/11/14 04:15:57;;;;;;;26.87;16.57;;;4.80;99.90;;;;;;5074648;28;20466;-80
2022/11/14 04:18:25;;;;;;;26.40;17.17;;;4.70;99.90;;;;;;5075917;28;20548;-81
2022/11/14 04:20:54;;;;;;;24.77;14.80;;;4.70;99.90;;;;;;5077287;28;20484;-80
2022/11/14 04:23:21;;;;;;;25.23;16.43;;;4.70;99.90;;;;;;5072517;28;20849;-80
2022/11/14 04:25:48;;;;;;;30.20;16.07;;;4.70;99.90;;;;;;5078125;28;20979;-80
2022/11/14 04:28:15;;;;;;;24.40;18.37;;;4.70;99.90;;;;;;5082146;28;20482;-80
2022/11/14 04:30:43;;;;;;;27.17;16.30;;;4.70;99.90;;;;;;5080603;28;20470;-81
2022/11/14 04:33:11;;;;;;;28.07;18.47;;;4.70;99.90;;;;;;5083829;28;20513;-80
2022/11/14 04:35:38;;;;;;;25.00;15.73;;;4.70;99.90;;;;;;5084949;28;20490;-80
2022/11/14 04:38:06;;;;;;;23.83;15.90;;;4.60;99.90;;;;;;5086427;28;20511;-80
2022/11/14 04:40:33;;;;;;;25.87;16.60;;;4.60;99.90;;;;;;5085942;28;20458;-80
2022/11/14 04:43:00;;;;;;;26.97;17.93;;;4.60;99.90;;;;;;5081518;28;20466;-80
2022/11/14 04:45:27;;;;;;;22.27;13.90;;;4.60;99.90;;;;;;5086552;28;20478;-80
2022/11/14 04:47:54;;;;;;;24.00;15.63;;;4.50;99.90;;;;;;5083984;28;20466;-80
2022/11/14 04:50:22;;;;;;;21.63;16.30;;;4.60;99.90;;;;;;5081948;28;20467;-80
2022/11/14 04:52:52;;;;;;;25.10;16.33;;;4.60;99.90;;;;;;5086448;28;20519;-81
2022/11/14 04:55:21;;;;;;;23.13;14.77;;;4.60;99.90;;;;;;5083783;28;20870;-80
2022/11/14 04:57:53;;;;;;;26.17;17.83;;;4.60;99.90;;;;;;5089442;28;21210;-80
2022/11/14 05:00:20;;;;;;;23.00;15.47;;;4.60;99.90;;;;;;5085482;28;20475;-80
2022/11/14 05:02:47;;;;;;;23.17;15.43;;;4.60;99.90;;;;;;5083790;28;20523;-80
2022/11/14 05:05:14;;;;;;;29.40;17.77;;;4.60;99.90;;;;;;5090473;28;20490;-80
2022/11/14 05:07:41;;;;;;;20.83;15.03;;;4.60;99.90;;;;;;5079725;28;20455;-79
2022/11/14 05:10:09;;;;;;;27.10;16.23;;;4.50;99.90;;;;;;5097935;28;20466;-81
2022/11/14 05:12:37;;;;;;;24.37;16.20;;;4.50;99.90;;;;;;5077063;28;20883;-80
2022/11/14 05:15:05;;;;;;;23.83;16.53;;;4.50;99.90;;;;;;5074290;28;20450;-80
2022/11/14 05:17:32;;;;;;;24.63;16.17;;;4.50;99.90;;;;;;5071296;28;20467;-81
2022/11/14 05:19:59;;;;;;;24.13;15.30;;;4.50;99.90;;;;;;5071525;28;20460;-80
2022/11/14 05:22:26;;;;;;;27.87;16.00;;;4.60;99.90;;;;;;5077515;28;20459;-78
2022/11/14 05:24:53;;;;;;;21.30;14.97;;;4.50;99.90;;;;;;5074094;28;20482;-78
2022/11/14 05:27:20;;;;;;;21.27;14.70;;;4.50;99.90;;;;;;5075607;28;20498;-78
2022/11/14 05:29:48;;;;;;;25.47;16.60;;;4.40;99.90;;;;;;5078945;28;20510;-78
2022/11/14 05:32:16;;;;;;;24.00;14.83;;;4.40;99.90;;;;;;5081665;28;20520;-78
2022/11/14 05:34:43;;;;;;;25.03;14.70;;;4.40;99.90;;;;;;5072484;28;20974;-78
2022/11/14 05:37:10;;;;;;;24.13;16.77;;;4.40;99.90;;;;;;5070932;28;20467;-78
2022/11/14 05:39:37;;;;;;;25.10;16.23;;;4.40;99.90;;;;;;5077105;28;20535;-78
2022/11/14 05:42:05;;;;;;;29.90;14.80;;;4.40;99.90;;;;;;5076225;28;20463;-78
2022/11/14 05:44:32;;;;;;;26.03;16.90;;;4.30;99.90;;;;;;5075309;28;20481;-78
2022/11/14 05:47:00;;;;;;;25.47;15.80;;;4.30;99.90;;;;;;5074006;28;20494;-78
2022/11/14 05:49:27;;;;;;;20.73;16.10;;;4.40;99.90;;;;;;5075606;28;21087;-78
2022/11/14 05:51:54;;;;;;;32.00;15.57;;;4.30;99.90;;;;;;5069707;28;20492;-78
2022/11/14 05:54:21;;;;;;;19.60;13.40;;;4.30;99.90;;;;;;5069716;28;20462;-78
2022/11/14 05:56:48;;;;;;;26.87;17.73;;;4.30;99.90;;;;;;5063058;28;20906;-78
2022/11/14 05:59:15;;;;;;;26.03;16.43;;;4.30;99.90;;;;;;5065445;28;20455;-78
2022/11/14 06:01:42;;;;;;;20.67;14.10;;;4.30;99.90;;;;;;5074786;28;20568;-78
2022/11/14 06:04:13;;;;;;;26.20;15.37;;;4.30;99.90;;;;;;5074956;28;20474;-78
2022/11/14 06:06:40;;;;;;;23.60;16.57;;;4.30;99.90;;;;;;5074059;28;20465;-78
2022/11/14 06:09:07;;;;;;;20.37;15.30;;;4.30;99.90;;;;;;5072020;28;20459;-78
2022/11/14 06:11:34;;;;;;;24.97;15.73;;;4.20;99.90;;;;;;5065542;28;20460;-78
2022/11/14 06:14:01;;;;;;;22.77;15.60;;;4.10;99.90;;;;;;5076930;28;20463;-78
2022/11/14 06:16:28;;;;;;;25.50;15.00;;;4.10;99.90;;;;;;5074603;28;20823;-78
2022/11/14 06:18:56;;;;;;;25.07;16.87;;;4.20;99.90;;;;;;5079841;28;20467;-78
2022/11/14 06:21:26;;;;;;;22.00;17.07;;;4.10;99.90;;;;;;5073896;28;20571;-79
2022/11/14 06:23:53;;;;;;;29.03;18.93;;;4.10;99.90;;;;;;5078309;28;20565;-78
2022/11/14 06:26:22;;;;;;;26.50;16.20;;;4.10;99.90;;;;;;5075558;28;20604;-79
2022/11/14 06:28:50;;;;;;;23.67;16.17;;;4.20;99.90;;;;;;5078423;28;20903;-79
2022/11/14 06:31:18;;;;;;;27.80;15.60;;;4.20;99.90;;;;;;5075080;28;20989;-79
2022/11/14 06:33:45;;;;;;;26.67;14.90;;;4.20;99.90;;;;;;5069189;28;20488;-79
2022/11/14 06:36:13;;;;;;;24.67;14.67;;;4.20;99.90;;;;;;5074870;28;20495;-78
2022/11/14 06:38:42;;;;;;;29.90;16.07;;;4.30;99.90;;;;;;5074310;28;20470;-78
2022/11/14 06:41:11;;;;;;;21.73;15.00;;;4.30;99.90;;;;;;5070068;28;20503;-79
2022/11/14 06:43:40;;;;;;;21.53;15.13;;;4.20;99.90;;;;;;5070855;28;21252;-79
2022/11/14 06:46:08;;;;;;;21.73;14.60;;;4.20;99.90;;;;;;5072751;28;20490;-78
2022/11/14 06:48:36;;;;;;;42.47;28.50;;;4.30;99.90;;;;;;5064087;28;20956;-79
2022/11/14 06:51:04;;;;;;;28.13;18.40;;;4.30;99.90;;;;;;5069195;28;20507;-78
2022/11/14 06:53:33;;;;;;;26.67;19.27;;;4.30;99.90;;;;;;5072601;28;20463;-78
2022/11/14 06:56:03;;;;;;;26.70;17.90;;;4.30;99.90;;;;;;5070114;28;21016;-79
2022/11/14 06:58:32;;;;;;;29.23;20.00;;;4.30;99.90;;;;;;5066342;28;20467;-79
2022/11/14 07:01:04;;;;;;;21.13;14.03;;;4.40;99.90;;;;;;5074133;28;20533;-79
2022/11/14 07:03:31;;;;;;;26.90;19.10;;;4.40;99.90;;;;;;5073994;28;21140;-78
2022/11/14 07:05:58;;;;;;;21.70;14.30;;;4.40;99.90;;;;;;5075447;28;21051;-78
2022/11/14 07:08:25;;;;;;;24.10;15.43;;;4.40;99.90;;;;;;5078792;28;20460;-79
2022/11/14 07:10:52;;;;;;;18.20;13.40;;;4.50;99.90;;;;;;5079441;28;20465;-79
2022/11/14 07:13:21;;;;;;;25.37;17.10;;;4.50;99.90;;;;;;5078740;28;20471;-78
2022/11/14 07:15:51;;;;;;;22.87;16.57;;;4.50;99.90;;;;;;5072340;28;20478;-79
2022/11/14 07:18:19;;;;;;;22.67;16.23;;;4.60;99.90;;;;;;5080790;28;20978;-79
2022/11/14 07:20:46;;;;;;;21.27;14.20;;;4.70;99.90;;;;;;5064321;28;21213;-79
2022/11/14 07:23:13;;;;;;;22.27;15.97;;;4.80;99.90;;;;;;5066368;28;20793;-78
2022/11/14 07:25:40;;;;;;;22.63;18.07;;;4.90;99.90;;;;;;5067081;28;20511;-78
2022/11/14 07:28:07;;;;;;;17.93;15.20;;;5.00;99.90;;;;;;5075092;28;20523;-78
2022/11/14 07:30:35;;;;;;;22.67;15.50;;;5.00;99.90;;;;;;5071739;28;20462;-78
2022/11/14 07:33:02;;;;;;;20.93;15.17;;;5.00;99.90;;;;;;5079248;28;20953;-79
2022/11/14 07:35:29;;;;;;;25.20;17.33;;;5.00;99.90;;;;;;5067326;28;20460;-78
2022/11/14 07:38:02;;;;;;;21.53;17.53;;;5.00;99.90;;;;;;5075551;28;20524;-78
2022/11/14 07:40:29;;;;;;;23.20;16.90;;;5.00;99.90;;;;;;5073278;28;20494;-78
2022/11/14 07:42:59;;;;;;;20.00;15.80;;;5.10;99.90;;;;;;5073633;28;20567;-78
2022/11/14 07:45:26;;;;;;;19.83;15.50;;;5.10;99.90;;;;;;5079947;28;20609;-78
2022/11/14 07:47:57;;;;;;;19.67;16.50;;;5.10;99.90;;;;;;5072245;28;20469;-78
2022/11/14 07:50:24;;;;;;;14.53;11.97;;;5.20;99.90;;;;;;5065683;28;21064;-79
2022/11/14 07:52:51;;;;;;;19.93;13.73;;;5.20;99.90;;;;;;5063406;28;20490;-79
2022/11/14 07:55:18;;;;;;;17.30;11.70;;;5.30;99.90;;;;;;5068794;28;20548;-79
2022/11/14 07:57:45;;;;;;;14.70;11.33;;;5.50;99.90;;;;;;5067045;28;20648;-79
2022/11/14 08:00:14;;;;;;;17.60;12.30;;;5.60;99.90;;;;;;5065593;28;20490;-78
2022/11/14 08:02:41;;;;;;;12.70;9.77;;;5.80;99.90;;;;;;5075680;28;20986;-79
2022/11/14 08:05:10;;;;;;;12.60;9.70;;;5.90;99.90;;;;;;5072775;28;21075;-79
2022/11/14 08:07:37;;;;;;;13.43;9.83;;;6.00;99.90;;;;;;5069389;28;20459;-79
2022/11/14 08:10:04;;;;;;;11.53;8.63;;;6.00;99.90;;;;;;5064338;28;20525;-79
2022/11/14 08:12:31;;;;;;;14.80;12.17;;;6.20;99.90;;;;;;5072841;28;20560;-79
2022/11/14 08:14:58;;;;;;;11.20;8.43;;;6.40;99.90;;;;;;5073262;28;20458;-79
2022/11/14 08:17:25;;;;;;;15.37;9.67;;;6.50;99.90;;;;;;5075011;28;20528;-79
2022/11/14 08:19:52;;;;;;;12.67;9.60;;;6.70;99.90;;;;;;5072513;28;20525;-79
2022/11/14 08:22:20;;;;;;;12.00;8.50;;;6.80;99.90;;;;;;5067565;28;20454;-79
2022/11/14 08:24:47;;;;;;;14.20;8.07;;;6.90;99.90;;;;;;5070300;28;20522;-79
2022/11/14 08:27:14;;;;;;;14.23;7.80;;;7.00;99.90;;;;;;5074910;28;20462;-79
2022/11/14 08:29:41;;;;;;;12.70;8.43;;;7.00;99.90;;;;;;5057387;28;20985;-79
2022/11/14 08:32:08;;;;;;;14.40;9.87;;;7.00;99.90;;;;;;5071119;28;20465;-79
2022/11/14 08:34:35;;;;;;;11.93;8.73;;;7.10;99.90;;;;;;5064541;28;20502;-79
2022/11/14 08:37:03;;;;;;;13.80;8.60;;;7.10;99.90;;;;;;5078637;28;21011;-79
2022/11/14 08:39:31;;;;;;;12.13;9.23;;;7.20;99.90;;;;;;5071028;28;20471;-79
2022/11/14 08:41:58;;;;;;;10.73;8.77;;;7.20;99.90;;;;;;5064057;28;20469;-79
2022/11/14 08:44:25;;;;;;;10.33;8.57;;;7.20;99.90;;;;;;5056114;28;21029;-79
2022/11/14 08:46:52;;;;;;;10.13;8.20;;;7.30;99.90;;;;;;5054745;28;21553;-79
2022/11/14 08:49:19;;;;;;;10.33;6.80;;;7.40;99.90;;;;;;5061761;28;21076;-79
2022/11/14 08:51:46;;;;;;;9.33;8.00;;;7.60;99.90;;;;;;5055367;28;20501;-79
2022/11/14 08:54:13;;;;;;;8.30;6.50;;;7.80;99.90;;;;;;5056161;28;20572;-79
2022/11/14 08:56:41;;;;;;;8.23;7.17;;;8.00;99.90;;;;;;5057367;28;20478;-79
2022/11/14 08:59:08;;;;;;;7.10;6.03;;;8.20;99.90;;;;;;5057431;28;20548;-79
2022/11/14 09:01:35;;;;;;;7.03;5.73;;;8.30;99.90;;;;;;5056392;28;22220;-79
2022/11/14 09:04:02;;;;;;;8.17;5.43;;;8.50;99.90;;;;;;5072934;28;20463;-78
2022/11/14 09:06:29;;;;;;;7.47;5.60;;;8.70;99.90;;;;;;5083002;28;20489;-79
2022/11/14 09:08:56;;;;;;;6.90;5.73;;;8.90;99.90;;;;;;5088902;28;20459;-79
2022/11/14 09:11:23;;;;;;;6.00;5.40;;;9.00;99.90;;;;;;5084306;28;20466;-79
2022/11/14 09:13:51;;;;;;;8.17;7.27;;;9.10;99.90;;;;;;5072004;28;20462;-79
2022/11/14 09:16:18;;;;;;;8.83;5.60;;;9.20;99.90;;;;;;5075748;28;20837;-79
2022/11/14 09:18:45;;;;;;;9.07;7.30;;;9.20;99.90;;;;;;5070073;28;20466;-79
2022/11/14 09:21:12;;;;;;;8.17;6.37;;;9.30;99.90;;;;;;5086702;28;20462;-79
2022/11/14 09:23:39;;;;;;;10.40;7.20;;;9.30;99.90;;;;;;5071068;28;20552;-79
2022/11/14 09:26:07;;;;;;;9.53;6.60;;;9.40;99.90;;;;;;5084458;28;20607;-79
2022/11/14 09:28:34;;;;;;;10.50;7.63;;;9.40;99.90;;;;;;5078619;28;20980;-79
2022/11/14 09:31:04;;;;;;;8.33;6.13;;;9.40;99.90;;;;;;5071495;28;20471;-79
2022/11/14 09:33:31;;;;;;;9.97;6.90;;;9.60;99.90;;;;;;5080050;28;20891;-79
2022/11/14 09:35:58;;;;;;;10.37;7.17;;;9.60;99.90;;;;;;5075990;28;20466;-79
2022/11/14 09:38:25;;;;;;;7.90;7.07;;;9.70;99.90;;;;;;5065542;28;20450;-79
2022/11/14 09:41:04;;;;;;;10.33;7.30;;;9.80;99.90;;;;;;5066274;28;20502;-79
2022/11/14 09:43:57;;;;;;;8.67;7.60;;;9.90;99.90;;;;;;5075834;28;20523;-79
2022/11/14 09:46:31;;;;;;;9.27;6.00;;;10.00;99.90;;;;;;5078076;28;21267;-79
2022/11/14 09:48:59;;;;;;;7.60;5.43;;;10.10;99.90;;;;;;5072801;28;20848;-79
2022/11/14 09:51:31;;;;;;;8.07;6.03;;;10.30;99.90;;;;;;5071300;28;21032;-79
2022/11/14 09:54:06;;;;;;;7.73;5.87;;;10.30;99.90;;;;;;5078425;28;20548;-79
2022/11/14 09:56:34;;;;;;;5.93;4.90;;;10.30;99.90;;;;;;5074339;28;20459;-79
2022/11/14 09:59:01;;;;;;;8.40;5.57;;;10.40;99.90;;;;;;5073030;28;20467;-79
2022/11/14 10:01:41;;;;;;;12.80;8.33;;;10.70;99.90;;;;;;5079639;28;20632;-79
2022/11/14 10:04:18;;;;;;;11.57;6.63;;;10.80;99.90;;;;;;5074490;28;20459;-79
2022/11/14 10:06:56;;;;;;;9.37;6.90;;;11.00;99.90;;;;;;5074258;28;20845;-79
2022/11/14 10:09:34;;;;;;;7.57;6.80;;;11.20;99.90;;;;;;5069704;28;20552;-79
2022/11/14 10:12:07;;;;;;;7.00;6.00;;;11.10;99.90;;;;;;5081563;28;20478;-79
2022/11/14 10:14:56;;;;;;;10.37;6.80;;;11.20;99.90;;;;;;5073766;28;20986;-79
2022/11/14 10:17:56;;;;;;;9.20;7.00;;;11.30;99.90;;;;;;5076859;28;20460;-80
2022/11/14 10:20:32;;;;;;;8.67;6.20;;;11.20;99.90;;;;;;5069810;28;20844;-80
2022/11/14 10:23:15;;;;;;;7.80;6.93;;;11.20;99.90;;;;;;5078669;28;20452;-80
2022/11/14 10:25:52;;;;;;;8.00;6.83;;;11.30;99.90;;;;;;5076884;28;20466;-79
2022/11/14 10:28:47;;;;;;;11.17;6.57;;;11.40;99.90;;;;;;5078303;28;20494;-77
2022/11/14 10:31:29;;;;;;;8.97;7.80;;;11.50;99.90;;;;;;5056010;28;20494;-77
2022/11/14 10:34:04;;;;;;;9.00;7.23;;;11.60;99.90;;;;;;5058385;28;21145;-79
2022/11/14 10:36:50;;;;;;;7.83;6.40;;;11.70;99.90;;;;;;5072828;28;20454;-80
2022/11/14 10:39:21;;;;;;;8.00;7.00;;;11.90;99.90;;;;;;5074878;28;20590;-79
2022/11/14 10:41:51;;;;;;;8.63;6.73;;;11.90;99.90;;;;;;5072221;28;20459;-78
2022/11/14 10:44:25;;;;;;;6.73;5.70;;;12.00;99.90;;;;;;5080431;28;20472;-78
2022/11/14 10:46:56;;;;;;;8.57;7.10;;;12.20;99.90;;;;;;5075508;28;20572;-78
2022/11/14 10:49:31;;;;;;;5.60;4.83;;;12.40;99.90;;;;;;5081296;28;20477;-78
2022/11/14 10:52:01;;;;;;;7.57;5.97;;;12.40;99.90;;;;;;5073603;28;20943;-78
2022/11/14 10:54:36;;;;;;;5.37;4.53;;;12.50;99.90;;;;;;5072650;28;20478;-78
2022/11/14 10:57:03;;;;;;;4.90;4.40;;;12.60;99.90;;;;;;5082266;28;20959;-78
2022/11/14 10:59:30;;;;;;;6.83;5.00;;;12.80;99.90;;;;;;5071396;28;20527;-80
2022/11/14 11:01:58;;;;;;;6.20;4.07;;;13.00;99.90;;;;;;5077278;28;20901;-80
2022/11/14 11:04:28;;;;;;;6.60;5.00;;;13.10;99.90;;;;;;5096195;28;20469;-79
2022/11/14 11:06:58;;;;;;;4.47;4.00;;;13.10;99.90;;;;;;5065780;28;21098;-79
2022/11/14 11:12:18;;;;;;;5.53;4.23;;;13.30;99.90;;;;;;5086209;28;20463;-79
2022/11/14 11:14:47;;;;;;;3.87;3.40;;;13.30;99.90;;;;;;5081227;28;20502;-79
2022/11/14 11:17:20;;;;;;;6.70;5.10;;;13.30;99.90;;;;;;5075885;28;20499;-78
2022/11/14 11:19:49;;;;;;;6.70;4.87;;;13.30;99.90;;;;;;5069821;28;20464;-78
2022/11/14 11:22:34;;;;;;;4.70;4.27;;;13.20;99.90;;;;;;5072041;28;20474;-78
2022/11/14 11:25:01;;;;;;;5.77;4.40;;;13.10;99.90;;;;;;5064207;28;21009;-78
2022/11/14 11:27:30;;;;;;;6.33;4.10;;;13.00;99.90;;;;;;5070518;28;20548;-78
2022/11/14 11:30:19;;;;;;;4.50;3.43;;;12.90;99.90;;;;;;5074297;28;20579;-78
2022/11/14 11:32:46;;;;;;;4.47;3.17;;;12.70;99.90;;;;;;5069184;28;20499;-78
2022/11/14 11:35:16;;;;;;;6.23;4.80;;;12.70;99.90;;;;;;5089049;28;20545;-78
2022/11/14 11:37:47;;;;;;;6.33;5.07;;;12.90;99.90;;;;;;5070647;28;20533;-78
2022/11/14 11:40:20;;;;;;;6.97;5.47;;;13.10;99.90;;;;;;5065090;28;20513;-78
2022/11/14 11:42:57;;;;;;;6.07;4.73;;;13.30;99.90;;;;;;5067816;28;20833;-78
2022/11/14 11:45:24;;;;;;;6.87;5.00;;;13.40;99.90;;;;;;5082443;28;20523;-78
2022/11/14 11:48:00;;;;;;;5.40;4.90;;;13.60;99.90;;;;;;5076337;28;20579;-79
2022/11/14 11:50:30;;;;;;;5.73;5.23;;;13.80;99.90;;;;;;5070238;28;20462;-78
2022/11/14 11:53:10;;;;;;;5.50;4.77;;;13.80;99.90;;;;;;5066461;28;20498;-78
2022/11/14 11:55:42;;;;;;;7.00;6.30;;;13.70;99.90;;;;;;5075970;28;20668;-78
2022/11/14 11:58:15;;;;;;;5.93;4.77;;;13.50;99.90;;;;;;5068349;28;20613;-79
2022/11/14 12:00:42;;;;;;;8.17;5.37;;;13.40;99.90;;;;;;5072901;28;20535;-79
2022/11/14 12:03:13;;;;;;;4.37;3.97;;;13.30;99.90;;;;;;5074572;28;20542;-78
2022/11/14 12:05:51;;;;;;;5.27;4.67;;;13.10;99.90;;;;;;5066130;28;20792;-78
2022/11/14 12:08:26;;;;;;;4.50;4.00;;;13.10;99.90;;;;;;5069917;28;20458;-80
2022/11/14 12:10:54;;;;;;;4.63;3.90;;;13.20;99.90;;;;;;5070721;28;20956;-79
2022/11/14 12:13:54;;;;;;;4.43;4.03;;;13.40;99.90;;;;;;5053945;28;20462;-79
2022/11/14 12:16:40;;;;;;;6.23;3.87;;;13.70;99.90;;;;;;5057849;28;20478;-79
2022/11/14 12:19:28;;;;;;;4.63;4.13;;;13.90;99.90;;;;;;5064943;28;20468;-80
2022/11/14 12:22:27;;;;;;;3.60;3.40;;;14.00;99.90;;;;;;5073681;28;20476;-79
2022/11/14 12:25:18;;;;;;;7.03;4.50;;;14.20;99.90;;;;;;5066251;28;20495;-80
2022/11/14 12:28:11;;;;;;;5.37;3.50;;;14.20;99.90;;;;;;5082315;28;20581;-80
2022/11/14 12:30:40;;;;;;;3.17;2.87;;;14.20;99.90;;;;;;5067575;28;20491;-79
2022/11/14 12:33:11;;;;;;;6.07;4.13;;;14.10;99.90;;;;;;5072473;28;20457;-79
2022/11/14 12:35:47;;;;;;;6.00;4.80;;;14.20;99.90;;;;;;5074796;28;20496;-79
2022/11/14 12:38:18;;;;;;;4.93;3.93;;;14.10;99.90;;;;;;5069556;28;20511;-79
2022/11/14 12:40:52;;;;;;;8.80;4.00;;;14.20;99.90;;;;;;5072575;28;20469;-79
2022/11/14 12:43:33;;;;;;;7.20;4.70;;;14.20;99.90;;;;;;5067838;28;20495;-79
2022/11/14 12:46:02;;;;;;;4.97;4.47;;;14.20;99.90;;;;;;5059390;28;20465;-79
2022/11/14 12:48:33;;;;;;;7.53;4.60;;;14.10;99.90;;;;;;5079331;28;21087;-79
2022/11/14 12:51:01;;;;;;;5.93;3.80;;;14.00;99.90;;;;;;5079404;28;20469;-79
2022/11/14 12:53:44;;;;;;;6.47;4.43;;;13.90;99.90;;;;;;5081375;28;20487;-80
2022/11/14 12:56:48;;;;;;;7.73;4.40;;;13.90;99.90;;;;;;5086244;28;20450;-79